Flight Track Log - Related Links

Times and Time Zones

All times are in EDT time to prevent confusion due to time zone crossing. See the DAL3643 flight status page for this flight to view local times or setup timezone preferences in your user account.

Time Position Orientation Groundspeed Altitude Reporting Facility
EDT Latitude Longitude Course Direction KTS MPH feet Rate Location/Type
Sun 04:01:03 PM 42.2014 -83.3611 276° West 148 170 1,400  Level Cleveland Center
Sun 04:02:30 PM 42.1417 -83.4200 216° Southwest 213 245 4,000 2,351 Climbing Cleveland Center
Sun 04:03:31 PM 42.0925 -83.4653 214° Southwest 225 259 7,200 2,557 Climbing Cleveland Center
Sun 04:04:00 PM 42.2300 -83.8365 276° West  Level FlightAware Approximate
Sun 04:04:32 PM 42.0925 -83.5522 270° West 262 302 9,200  Level Cleveland Center
Sun 04:05:00 PM 42.2388 -83.9585 276° West  Level FlightAware Approximate
Sun 04:05:05 PM 42.1011 -83.6169 280° West 296 341 9,900  Level Cleveland Center
Sun 04:06:00 PM 42.2475 -84.0806 276° West  Level FlightAware Approximate
Sun 04:06:06 PM 42.1314 -83.7303 290° West 382 440 10,000  Level Cleveland Center
Sun 04:07:05 PM 42.1694 -83.8667 291° West 382 440 11,200 1,350 Climbing Cleveland Center
Sun 04:08:06 PM 42.2072 -83.9978 291° West 410 472 12,700 1,550 Climbing Cleveland Center
Sun 04:09:05 PM 42.2469 -84.1372 291° West 404 465 14,300 1,513 Climbing Cleveland Center
Sun 04:10:05 PM 42.2611 -84.2783 278° West 393 452 15,700 1,500 Climbing Cleveland Center
Sun 04:11:05 PM 42.2583 -84.4242 269° West 386 444 17,300 1,450 Climbing Cleveland Center
Sun 04:12:05 PM 42.2514 -84.5697 266° West 391 450 18,600 1,304 Climbing Cleveland Center
Sun 04:12:37 PM 42.2472 -84.6442 266° West 391 450 19,300 1,213 Climbing Chicago Center
Sun 04:13:39 PM 42.2278 -84.7856 260° West 392 451 20,500 1,161 Climbing Chicago Center
Sun 04:14:41 PM 42.1475 -84.8878 223° Southwest 398 458 21,700 726 Climbing Chicago Center
Sun 04:15:43 PM 42.0625 -84.9875 221° Southwest 402 463 22,000 145 Climbing Chicago Center
Sun 04:16:45 PM 41.9583 -85.1072 221° Southwest 427 491 22,000  Level Chicago Center
Sun 04:17:47 PM 41.8639 -85.2169 221° Southwest 447 514 22,000  Level Chicago Center
Sun 04:18:49 PM 41.7694 -85.3267 221° Southwest 452 520 22,000  Level Chicago Center
Sun 04:19:51 PM 41.6639 -85.4447 220° Southwest 457 526 22,000 -145 Level Chicago Center
Sun 04:20:53 PM 41.5733 -85.5742 227° Southwest 465 535 21,700 -864 Descending Chicago Center
Sun 04:21:56 PM 41.5522 -85.7353 260° West 445 512 20,200 -1,680 Descending Chicago Center
Sun 04:22:58 PM 41.5367 -85.8983 263° West 443 510 18,200 -1,839 Descending Chicago Center
Sun 04:24:00 PM 41.5244 -86.0536 264° West 426 490 16,400 -1,887 Descending Chicago Center
Sun 04:25:02 PM 41.5242 -86.2033 270° West 406 467 14,300 -1,984 Descending Chicago Center
Sun 04:26:04 PM 41.5233 -86.3481 270° West 393 452 12,300 -1,113 Descending Chicago Center
Sun 04:27:06 PM 41.5217 -86.5086 269° West 359 413 12,000 -629 Descending Chicago Center
Sun 04:28:08 PM 41.5208 -86.6286 270° West 331 381 11,000 -1,065 Descending Chicago Center
Sun 04:29:10 PM 41.5208 -86.7503 270° West 311 358 9,800 -1,161 Descending Chicago Center
Sun 04:30:12 PM 41.5178 -86.8536 268° West 285 328 8,600 -1,065 Descending Chicago Center
Sun 04:31:14 PM 41.5169 -86.9567 269° West 281 323 7,600 -968 Descending Chicago Center
Sun 04:32:16 PM 41.5178 -87.0600 271° West 280 322 6,600 -968 Descending Chicago Center
Sun 04:33:18 PM 41.5489 -87.1769 290° West 281 323 5,600 -968 Descending Chicago Center
Sun 04:34:20 PM 41.5714 -87.2719 288° West 274 315 4,600 -774 Descending Chicago Center
Sun 04:35:22 PM 41.5933 -87.3681 287° West 273 314 4,000 -290 Descending Chicago Center
Sun 04:36:24 PM 41.6161 -87.4619 288° West 270 311 4,000  Level Chicago Center
Sun 04:37:27 PM 41.6197 -87.5606 273° West 269 310 4,000 -497 Level Chicago Center
Sun 04:39:13 PM 41.6500 -87.7500 282° West 260 299 2,600 -542 Descending Chicago TRACON
Sun 04:40:13 PM 41.6833 -87.8000 312° West 208 239 2,500 -313 Descending Chicago TRACON
Sun 04:41:08 PM 41.7333 -87.8167 346° North 168 193 2,000 -574 Descending Chicago TRACON
Sun 04:42:08 PM 41.7500 -87.7833 56° Northeast 144 166 1,400 -600 Descending Chicago TRACON

Login

Don't have an account? Register now (free) for customized features, flight alerts, and more!